Time;durP1;ratioP1;P1;durP2;ratioP2;P2;SDS_P1;SDS_P2;PMS_P1;PMS_P2;Temp;Humidity;BMP_temperature;BMP_pressure;BME280_temperature;BME280_humidity;BME280_pressure;Samples;Min_cycle;Max_cycle;Signal;HPM_P1;HPM_P2
2022/11/25 00:01:19;;;;;;;3.50;2.15;;;12.40;99.90;;;;;;5055649;28;20235;-73
2022/11/25 00:03:47;;;;;;;;;;;12.40;99.90;;;;;;5066871;28;20128;-72
2022/11/25 00:06:28;;;;;;;3.58;1.60;;;12.30;99.90;;;;;;5039565;28;19977;-72
2022/11/25 00:09:04;;;;;;;3.72;2.15;;;12.40;99.90;;;;;;5054212;28;20502;-73
2022/11/25 00:11:38;;;;;;;6.00;1.70;;;12.40;99.90;;;;;;5054847;28;20048;-75
2022/11/25 00:14:06;;;;;;;4.38;1.95;;;12.40;99.90;;;;;;5052412;28;20575;-72
2022/11/25 00:16:34;;;;;;;5.00;2.88;;;12.40;99.90;;;;;;5089504;28;20054;-75
2022/11/25 00:19:02;;;;;;;6.90;2.72;;;12.40;99.90;;;;;;5048897;28;20044;-75
2022/11/25 00:21:32;;;;;;;4.72;1.95;;;12.40;99.90;;;;;;5052853;28;20051;-75
2022/11/25 00:24:03;;;;;;;5.03;2.30;;;12.40;99.90;;;;;;5076550;28;20047;-74
2022/11/25 00:26:32;;;;;;;3.40;1.90;;;12.40;99.90;;;;;;5062537;28;20139;-74
2022/11/25 00:29:06;;;;;;;3.85;2.28;;;12.30;99.90;;;;;;5074142;28;20111;-74
2022/11/25 00:31:36;;;;;;;4.32;1.80;;;12.30;99.90;;;;;;5079006;28;20347;-74
2022/11/25 00:34:04;;;;;;;3.03;1.63;;;12.30;99.90;;;;;;5078906;28;20045;-75
2022/11/25 00:36:36;;;;;;;5.80;1.90;;;12.30;99.90;;;;;;5062940;28;20062;-76
2022/11/25 00:39:11;;;;;;;4.82;1.90;;;12.20;99.90;;;;;;5074423;28;20466;-75
2022/11/25 00:44:40;;;;;;;3.43;2.10;;;12.20;99.90;;;;;;5080772;28;20042;-74
2022/11/25 00:47:17;;;;;;;5.10;2.50;;;12.20;99.90;;;;;;5072307;28;20423;-75
2022/11/25 00:49:47;;;;;;;4.13;2.42;;;12.20;99.90;;;;;;5050315;28;20150;-74
2022/11/25 00:52:26;;;;;;;4.18;2.47;;;12.10;99.90;;;;;;5059421;28;20037;-73
2022/11/25 00:54:53;;;;;;;5.93;2.70;;;12.10;99.90;;;;;;5068217;28;20063;-73
2022/11/25 00:57:22;;;;;;;4.45;2.95;;;12.00;99.90;;;;;;5067719;28;20044;-72
2022/11/25 00:59:50;;;;;;;5.68;2.40;;;12.10;99.90;;;;;;5089254;28;20044;-75
2022/11/25 01:02:20;;;;;;;4.03;2.65;;;12.00;99.90;;;;;;5059550;28;20102;-75
2022/11/25 01:04:48;;;;;;;6.28;3.20;;;12.00;99.90;;;;;;5080232;28;20036;-75
2022/11/25 01:07:16;;;;;;;8.50;3.05;;;12.10;99.90;;;;;;5066423;28;20104;-72
2022/11/25 01:09:44;;;;;;;5.65;3.33;;;12.00;99.90;;;;;;5062716;28;20044;-72
2022/11/25 01:12:11;;;;;;;7.15;3.25;;;12.00;99.90;;;;;;5076326;28;20370;-72
2022/11/25 01:14:39;;;;;;;7.55;4.10;;;12.00;99.90;;;;;;5050196;28;20044;-73
2022/11/25 01:17:06;;;;;;;5.88;3.65;;;12.00;99.90;;;;;;5061273;28;20213;-72
2022/11/25 01:19:38;;;;;;;8.77;3.92;;;11.90;99.90;;;;;;5066006;28;20488;-72
2022/11/25 01:22:07;;;;;;;4.80;3.47;;;12.00;99.90;;;;;;5053538;28;20076;-72
2022/11/25 01:24:35;;;;;;;7.25;3.15;;;12.00;99.90;;;;;;5055719;28;20052;-72
2022/11/25 01:27:02;;;;;;;6.25;3.58;;;12.00;99.90;;;;;;5041266;28;20036;-73
2022/11/25 01:29:29;;;;;;;6.55;3.75;;;11.90;99.90;;;;;;5058560;28;20464;-73
2022/11/25 01:31:57;;;;;;;8.70;4.13;;;11.90;99.90;;;;;;5072845;28;20082;-72
2022/11/25 01:34:26;;;;;;;7.82;3.67;;;11.90;99.90;;;;;;5061938;28;20043;-73
2022/11/25 01:36:56;;;;;;;6.15;3.55;;;11.90;99.90;;;;;;5060998;28;20052;-72
2022/11/25 01:39:25;;;;;;;6.65;3.35;;;11.90;99.90;;;;;;5054089;28;20409;-72
2022/11/25 01:41:56;;;;;;;8.70;3.90;;;11.80;99.90;;;;;;5060111;28;20048;-72
2022/11/25 01:44:28;;;;;;;7.75;3.53;;;11.90;99.90;;;;;;5092177;28;20101;-72
2022/11/25 01:47:17;;;;;;;6.05;3.78;;;11.90;99.90;;;;;;5046541;28;20093;-72
2022/11/25 01:50:17;;;;;;;4.38;2.92;;;12.00;99.90;;;;;;5033972;28;20044;-73
2022/11/25 01:52:47;;;;;;;7.20;3.78;;;12.10;99.90;;;;;;5038306;28;20071;-72
2022/11/25 01:55:18;;;;;;;5.80;3.85;;;12.00;99.90;;;;;;5051615;28;20227;-72
2022/11/25 01:58:03;;;;;;;6.28;3.38;;;12.00;99.90;;;;;;5030721;28;20099;-73
2022/11/25 02:00:31;;;;;;;8.80;3.63;;;12.00;99.90;;;;;;5033131;28;20040;-72
2022/11/25 02:02:59;;;;;;;4.43;2.85;;;12.00;99.90;;;;;;5046525;28;20057;-73
2022/11/25 02:06:10;;;;;;;8.98;3.92;;;12.00;99.90;;;;;;5056973;28;20526;-73
2022/11/25 02:08:38;;;;;;;8.48;3.95;;;11.90;99.90;;;;;;5052027;28;20100;-72
2022/11/25 02:11:06;;;;;;;5.60;3.30;;;11.90;99.90;;;;;;5049444;28;20167;-72
2022/11/25 02:13:35;;;;;;;5.20;3.03;;;11.90;99.90;;;;;;5025180;28;20052;-73
2022/11/25 02:16:02;;;;;;;5.10;3.30;;;11.90;99.90;;;;;;5033487;28;20045;-72
2022/11/25 02:18:30;;;;;;;8.20;4.20;;;11.90;99.90;;;;;;5029327;28;20638;-72
2022/11/25 02:20:57;;;;;;;9.40;4.30;;;11.80;99.90;;;;;;5045927;28;20051;-72
2022/11/25 02:23:33;;;;;;;6.47;3.88;;;11.80;99.90;;;;;;5038800;28;20049;-72
2022/11/25 02:26:03;;;;;;;8.57;4.93;;;11.80;99.90;;;;;;5013045;28;20622;-73
2022/11/25 02:28:32;;;;;;;6.78;2.97;;;11.80;99.90;;;;;;5029429;28;20037;-72
2022/11/25 02:31:02;;;;;;;5.68;2.97;;;11.80;99.90;;;;;;5015429;28;20458;-72
2022/11/25 02:33:30;;;;;;;6.28;2.67;;;11.70;99.90;;;;;;5044519;28;20072;-72
2022/11/25 02:36:19;;;;;;;4.07;2.83;;;11.70;99.90;;;;;;5047289;28;20037;-73
2022/11/25 02:38:58;;;;;;;4.60;3.22;;;11.70;99.90;;;;;;5030805;28;20049;-72
2022/11/25 02:41:32;;;;;;;5.32;3.03;;;11.70;99.90;;;;;;5031282;28;20044;-72
2022/11/25 02:44:04;;;;;;;5.70;3.08;;;11.70;99.90;;;;;;5052253;28;20496;-72
2022/11/25 02:46:32;;;;;;;4.35;2.67;;;11.70;99.90;;;;;;5044657;28;20045;-74
2022/11/25 02:49:02;;;;;;;4.13;2.80;;;11.70;99.90;;;;;;5044958;28;20118;-72
2022/11/25 02:51:43;;;;;;;4.32;2.72;;;11.60;99.90;;;;;;5067112;28;20052;-72
2022/11/25 02:54:15;;;;;;;4.78;2.90;;;11.60;99.90;;;;;;5034522;28;20045;-72
2022/11/25 02:56:43;;;;;;;4.20;2.70;;;11.60;99.90;;;;;;5067896;28;20147;-72
2022/11/25 02:59:11;;;;;;;7.78;4.07;;;11.70;99.90;;;;;;5067331;28;20056;-73
2022/11/25 03:01:39;;;;;;;5.15;3.17;;;11.70;99.90;;;;;;5066748;28;20044;-73
2022/11/25 03:04:09;;;;;;;4.10;2.60;;;11.70;99.90;;;;;;5050537;28;20066;-72
2022/11/25 03:06:37;;;;;;;9.18;2.80;;;11.60;99.90;;;;;;5050306;28;20475;-72
2022/11/25 03:09:06;;;;;;;5.85;3.50;;;11.60;99.90;;;;;;5067262;28;20049;-72
2022/11/25 03:14:23;;;;;;;4.18;2.70;;;11.70;99.90;;;;;;5053867;28;20045;-73
2022/11/25 03:16:50;;;;;;;6.40;2.47;;;11.60;99.90;;;;;;5066642;28;20040;-72
2022/11/25 03:19:18;;;;;;;7.32;2.60;;;11.60;99.90;;;;;;5067049;28;20042;-72
2022/11/25 03:21:45;;;;;;;5.45;3.00;;;11.60;99.90;;;;;;5068106;28;20052;-72
2022/11/25 03:24:13;;;;;;;5.10;2.65;;;11.60;99.90;;;;;;5050266;28;20045;-72
2022/11/25 03:26:40;;;;;;;8.57;2.85;;;11.70;99.90;;;;;;5066822;28;20566;-72
2022/11/25 03:29:08;;;;;;;11.90;3.17;;;11.70;99.90;;;;;;5049003;28;20052;-72
2022/11/25 03:31:36;;;;;;;7.88;2.60;;;11.80;99.90;;;;;;5066783;28;20722;-72
2022/11/25 03:34:08;;;;;;;7.13;2.63;;;11.80;99.90;;;;;;5050450;28;20123;-72
2022/11/25 03:36:36;;;;;;;9.38;2.53;;;11.90;99.90;;;;;;5049893;28;20542;-72
2022/11/25 03:39:04;;;;;;;3.88;2.53;;;11.80;99.90;;;;;;5066935;28;20037;-72
2022/11/25 03:41:33;;;;;;;4.97;2.95;;;11.80;99.90;;;;;;5050029;28;20060;-72
2022/11/25 03:44:01;;;;;;;5.57;2.85;;;11.80;99.90;;;;;;5066927;28;20048;-72
2022/11/25 03:46:29;;;;;;;3.88;2.50;;;11.70;99.90;;;;;;5049805;28;20072;-72
2022/11/25 03:48:58;;;;;;;3.90;2.40;;;11.70;99.90;;;;;;5066425;28;20060;-72
2022/11/25 03:51:27;;;;;;;3.85;1.88;;;11.70;99.90;;;;;;5049947;28;20102;-72
2022/11/25 03:53:54;;;;;;;3.97;2.20;;;11.60;99.90;;;;;;5054738;28;20040;-73
2022/11/25 03:56:24;;;;;;;3.80;1.88;;;11.60;99.90;;;;;;5063162;28;20040;-72
2022/11/25 03:58:51;;;;;;;3.60;2.30;;;11.60;99.90;;;;;;5064167;28;20518;-72
2022/11/25 04:01:19;;;;;;;2.70;1.83;;;11.60;99.90;;;;;;5036601;28;20113;-72
2022/11/25 04:03:47;;;;;;;3.75;2.00;;;11.50;99.90;;;;;;5063632;28;20079;-72
2022/11/25 04:06:17;;;;;;;7.95;1.88;;;11.60;99.90;;;;;;5049628;28;20475;-72
2022/11/25 04:08:47;;;;;;;1.90;1.35;;;11.60;99.90;;;;;;5049013;28;20052;-73
2022/11/25 04:11:15;;;;;;;3.00;1.52;;;11.70;99.90;;;;;;5049086;28;20181;-72
2022/11/25 04:13:46;;;;;;;2.95;1.48;;;11.80;99.90;;;;;;5049698;28;20083;-72
2022/11/25 04:16:23;;;;;;;3.22;1.67;;;11.70;99.90;;;;;;5065975;28;20102;-72
2022/11/25 04:18:52;;;;;;;6.30;2.00;;;11.80;99.90;;;;;;5052868;28;20093;-72
2022/11/25 04:21:20;;;;;;;2.72;1.65;;;11.80;99.90;;;;;;5070112;28;20060;-72
2022/11/25 04:23:47;;;;;;;2.20;1.52;;;11.80;99.90;;;;;;5069748;28;20048;-72
2022/11/25 04:26:15;;;;;;;3.10;1.50;;;11.90;99.90;;;;;;5051947;28;20501;-72
2022/11/25 04:28:44;;;;;;;3.03;1.85;;;11.90;99.90;;;;;;5079236;28;20040;-72
2022/11/25 04:31:12;;;;;;;5.15;2.35;;;11.90;99.90;;;;;;5058370;28;20065;-72
2022/11/25 04:33:42;;;;;;;7.55;2.22;;;11.90;99.90;;;;;;5069695;28;20048;-72
2022/11/25 04:36:10;;;;;;;5.57;2.42;;;11.80;99.90;;;;;;5050286;28;20052;-72
2022/11/25 04:38:38;;;;;;;2.78;2.17;;;11.80;99.90;;;;;;5069594;28;20126;-72
2022/11/25 04:41:06;;;;;;;9.30;2.03;;;11.80;99.90;;;;;;5070022;28;20059;-72
2022/11/25 04:43:39;;;;;;;2.63;1.67;;;11.70;99.90;;;;;;5077566;28;20109;-72
2022/11/25 04:46:17;;;;;;;5.00;2.40;;;11.70;99.90;;;;;;5069899;28;20447;-72
2022/11/25 04:48:50;;;;;;;2.67;1.65;;;11.50;99.90;;;;;;5068443;28;20508;-72
2022/11/25 04:51:18;;;;;;;2.38;1.50;;;11.50;99.90;;;;;;5049838;28;20602;-72
2022/11/25 04:53:50;;;;;;;3.53;1.90;;;11.50;99.90;;;;;;5068262;28;20036;-72
2022/11/25 04:56:19;;;;;;;3.80;1.58;;;11.50;99.90;;;;;;5069188;28;20436;-73
2022/11/25 05:01:39;;;;;;;2.85;1.42;;;11.60;99.90;;;;;;5052596;28;20515;-72
2022/11/25 05:04:27;;;;;;;2.50;1.33;;;11.60;99.90;;;;;;5059459;28;20066;-72
2022/11/25 05:06:55;;;;;;;2.80;1.70;;;11.60;99.90;;;;;;5036095;28;20056;-72
2022/11/25 05:09:24;;;;;;;2.47;1.80;;;11.60;99.90;;;;;;5053847;28;20114;-72
2022/11/25 05:12:09;;;;;;;3.38;1.17;;;11.70;99.90;;;;;;5067673;28;20036;-73
2022/11/25 05:14:37;;;;;;;3.08;1.33;;;11.70;99.90;;;;;;5068969;28;20452;-73
2022/11/25 05:17:06;;;;;;;2.17;1.15;;;11.70;99.90;;;;;;5068870;28;20508;-73
2022/11/25 05:19:35;;;;;;;4.00;1.88;;;11.70;99.90;;;;;;5068993;28;20054;-73
2022/11/25 05:22:03;;;;;;;2.10;1.77;;;11.70;99.90;;;;;;5035586;28;20044;-72
2022/11/25 05:24:31;;;;;;;2.00;1.20;;;11.70;99.90;;;;;;5068612;28;20047;-72
2022/11/25 05:26:58;;;;;;;3.58;1.50;;;11.70;99.90;;;;;;5042159;28;20106;-73
2022/11/25 05:29:26;;;;;;;2.95;1.30;;;11.70;99.90;;;;;;5066788;28;20044;-72
2022/11/25 05:31:54;;;;;;;2.97;1.42;;;11.60;99.90;;;;;;5052235;28;20511;-72
2022/11/25 05:34:21;;;;;;;2.03;1.30;;;11.60;99.90;;;;;;5052462;28;20044;-72
2022/11/25 05:36:50;;;;;;;3.10;1.88;;;11.60;99.90;;;;;;5068289;28;20040;-72
2022/11/25 05:39:18;;;;;;;2.35;1.55;;;11.60;99.90;;;;;;5068274;28;20059;-72
2022/11/25 05:42:23;;;;;;;3.08;1.58;;;11.60;99.90;;;;;;5006223;28;20140;-73
2022/11/25 05:44:52;;;;;;;2.10;1.10;;;11.50;99.90;;;;;;5028545;28;20040;-72
2022/11/25 05:47:20;;;;;;;3.35;1.25;;;11.40;99.90;;;;;;5047170;28;20055;-72
2022/11/25 05:49:48;;;;;;;4.90;3.88;;;11.40;99.90;;;;;;5061737;28;20052;-73
2022/11/25 05:52:15;;;;;;;4.78;3.60;;;11.40;99.90;;;;;;5050593;28;20498;-72
2022/11/25 05:54:50;;;;;;;4.68;2.63;;;11.40;99.90;;;;;;5068941;28;20032;-72
2022/11/25 05:57:21;;;;;;;4.32;2.67;;;11.40;99.90;;;;;;5035448;28;20060;-72
2022/11/25 05:59:53;;;;;;;5.55;3.40;;;11.50;99.90;;;;;;5051957;28;20044;-72
2022/11/25 06:02:29;;;;;;;;;;;11.60;99.90;;;;;;5070118;28;20490;-73
2022/11/25 06:04:57;;;;;;;2.97;1.92;;;11.90;99.90;;;;;;5067418;28;19928;-72
2022/11/25 06:07:24;;;;;;;3.03;1.95;;;12.40;99.90;;;;;;5047999;28;20044;-72
2022/11/25 06:09:53;;;;;;;5.85;1.98;;;12.90;99.90;;;;;;5062583;28;20040;-72
2022/11/25 06:12:22;;;;;;;2.47;1.77;;;13.60;99.90;;;;;;5051242;28;20379;-71
2022/11/25 06:14:50;;;;;;;3.08;1.80;;;14.20;99.90;;;;;;5056129;28;20502;-73
2022/11/25 06:17:18;;;;;;;3.90;1.98;;;14.70;99.90;;;;;;5071707;28;20036;-72
2022/11/25 06:19:51;;;;;;;4.00;1.67;;;15.30;99.90;;;;;;5050552;28;20051;-72
2022/11/25 06:22:18;;;;;;;4.88;1.90;;;15.90;99.90;;;;;;5062549;28;20044;-73
2022/11/25 06:24:46;;;;;;;4.60;2.20;;;16.50;99.90;;;;;;5054691;28;20187;-72
2022/11/25 06:27:18;;;;;;;2.38;1.50;;;17.10;99.90;;;;;;5081312;28;20055;-71
2022/11/25 06:29:45;;;;;;;3.10;1.55;;;17.60;99.90;;;;;;5061937;28;20059;-71
2022/11/25 06:32:13;;;;;;;2.97;2.03;;;18.10;99.90;;;;;;5069377;28;20044;-72
2022/11/25 06:34:44;;;;;;;5.20;2.70;;;18.60;99.90;;;;;;5067153;28;20067;-71
2022/11/25 06:37:29;;;;;;;5.85;2.47;;;19.00;99.90;;;;;;5070130;28;20505;-71
2022/11/25 06:39:56;;;;;;;3.85;1.85;;;19.60;99.40;;;;;;5069402;28;20044;-72
2022/11/25 06:42:24;;;;;;;4.10;2.95;;;20.00;98.30;;;;;;5087267;28;20131;-71
2022/11/25 06:44:52;;;;;;;4.63;3.08;;;20.60;97.90;;;;;;5052603;28;20928;-71
2022/11/25 06:50:00;;;;;;;3.38;2.30;;;21.50;97.00;;;;;;4980676;28;20401;-70
2022/11/25 06:52:30;;;;;;;3.75;2.50;;;22.10;96.20;;;;;;4981999;28;20039;-70
2022/11/25 06:54:58;;;;;;;2.53;1.85;;;22.70;95.80;;;;;;4965935;28;20158;-70
2022/11/25 06:57:25;;;;;;;5.85;3.25;;;23.20;95.10;;;;;;4965596;28;20418;-71
2022/11/25 06:59:53;;;;;;;3.72;1.95;;;23.70;94.40;;;;;;4967566;28;20094;-71
2022/11/25 07:02:20;;;;;;;3.83;2.60;;;24.10;93.90;;;;;;4964816;28;20121;-71
2022/11/25 07:04:48;;;;;;;2.35;1.83;;;24.30;93.60;;;;;;4966747;28;20074;-71
2022/11/25 07:07:16;;;;;;;3.00;2.30;;;24.60;92.90;;;;;;4965778;28;20170;-71
2022/11/25 07:09:43;;;;;;;5.22;1.98;;;24.90;92.70;;;;;;4965621;28;20066;-71
2022/11/25 07:12:11;;;;;;;3.40;2.10;;;25.30;92.20;;;;;;4967063;28;20132;-71
2022/11/25 07:14:38;;;;;;;3.55;1.98;;;25.40;91.70;;;;;;4967001;28;20051;-71
2022/11/25 07:17:06;;;;;;;3.40;1.65;;;25.40;91.50;;;;;;4967322;28;20042;-70
2022/11/25 07:19:36;;;;;;;2.55;1.58;;;25.10;91.50;;;;;;4965411;28;20409;-71
2022/11/25 07:22:04;;;;;;;4.55;1.70;;;24.80;91.60;;;;;;4951367;28;20118;-71
2022/11/25 07:24:32;;;;;;;2.53;1.60;;;24.20;92.20;;;;;;4965562;28;20043;-73
2022/11/25 07:27:00;;;;;;;8.00;2.22;;;23.90;92.80;;;;;;4949402;28;20544;-71
2022/11/25 07:29:29;;;;;;;3.25;1.95;;;23.50;93.20;;;;;;4966062;28;20473;-71
2022/11/25 07:32:16;;;;;;;3.13;2.03;;;23.10;93.60;;;;;;4964878;28;20106;-71
2022/11/25 07:34:44;;;;;;;4.22;1.95;;;22.60;94.20;;;;;;4933918;28;20655;-71
2022/11/25 07:37:11;;;;;;;5.50;1.90;;;22.30;94.50;;;;;;4966080;28;20093;-71
2022/11/25 07:39:39;;;;;;;2.75;1.80;;;22.10;95.00;;;;;;4966698;28;20134;-71
2022/11/25 07:42:06;;;;;;;3.42;2.08;;;21.90;95.60;;;;;;4964833;28;20086;-71
2022/11/25 07:44:34;;;;;;;3.47;1.90;;;21.80;95.80;;;;;;4964761;28;20136;-71
2022/11/25 07:47:21;;;;;;;3.60;1.95;;;21.70;96.20;;;;;;4964760;28;20450;-71
2022/11/25 07:49:49;;;;;;;4.10;2.03;;;21.70;96.40;;;;;;4983285;28;20468;-71
2022/11/25 07:52:16;;;;;;;3.15;2.05;;;21.70;96.50;;;;;;4984371;28;20118;-71
2022/11/25 07:54:44;;;;;;;3.65;1.83;;;21.60;96.80;;;;;;4968324;28;20043;-71
2022/11/25 07:57:12;;;;;;;4.22;2.42;;;21.60;96.90;;;;;;4984045;28;20038;-71
2022/11/25 07:59:40;;;;;;;6.78;2.33;;;21.50;97.00;;;;;;4980134;28;20053;-71
2022/11/25 08:02:08;;;;;;;5.28;2.20;;;21.30;97.20;;;;;;4970797;28;20139;-70
2022/11/25 08:04:36;;;;;;;5.90;2.47;;;21.00;97.40;;;;;;4954581;28;20495;-71
2022/11/25 08:07:04;;;;;;;6.03;2.90;;;20.90;97.90;;;;;;4970649;28;20066;-71
2022/11/25 08:09:31;;;;;;;5.35;2.40;;;20.80;98.20;;;;;;4970517;28;20564;-71
2022/11/25 08:11:59;;;;;;;4.82;2.22;;;20.80;98.40;;;;;;4970538;28;20089;-71
2022/11/25 08:14:26;;;;;;;6.35;2.22;;;20.70;98.60;;;;;;4951683;29;20395;-71
2022/11/25 08:16:54;;;;;;;7.60;2.33;;;20.50;99.00;;;;;;4964788;28;20142;-71
2022/11/25 08:19:22;;;;;;;5.78;2.53;;;20.30;99.40;;;;;;4963801;28;20139;-71
2022/11/25 08:21:53;;;;;;;6.82;2.40;;;20.20;99.50;;;;;;4971117;28;20074;-72
2022/11/25 08:24:21;;;;;;;3.47;2.00;;;19.90;99.70;;;;;;4971158;28;20041;-71
2022/11/25 08:26:49;;;;;;;4.75;2.97;;;19.50;99.90;;;;;;4954773;28;20162;-71
2022/11/25 08:29:18;;;;;;;6.22;2.53;;;19.40;99.90;;;;;;4966862;28;20039;-71
2022/11/25 08:31:46;;;;;;;5.20;3.08;;;19.40;99.90;;;;;;4970826;28;20042;-71
2022/11/25 08:34:19;;;;;;;5.45;2.85;;;19.30;99.90;;;;;;4971264;28;20131;-71
2022/11/25 08:36:49;;;;;;;5.38;3.25;;;19.20;99.90;;;;;;4951595;29;20058;-71
2022/11/25 08:39:19;;;;;;;7.68;3.17;;;19.30;99.90;;;;;;4963833;28;20054;-71
2022/11/25 08:42:07;;;;;;;7.63;4.53;;;19.40;99.90;;;;;;4962947;28;20133;-71
2022/11/25 08:44:35;;;;;;;11.25;3.78;;;19.70;99.90;;;;;;4950178;28;20054;-71
2022/11/25 08:47:03;;;;;;;5.97;3.20;;;19.90;99.90;;;;;;4971962;28;20685;-71
2022/11/25 08:49:30;;;;;;;4.50;3.00;;;20.10;99.90;;;;;;4951028;28;20085;-71
2022/11/25 08:52:01;;;;;;;6.85;2.60;;;20.10;99.90;;;;;;4971746;28;20129;-71
2022/11/25 08:54:29;;;;;;;6.93;3.15;;;20.10;99.90;;;;;;4938963;28;20497;-71
2022/11/25 08:56:59;;;;;;;9.00;4.32;;;20.00;99.90;;;;;;4970371;28;20047;-72
2022/11/25 08:59:27;;;;;;;6.55;3.38;;;20.00;99.90;;;;;;4957755;28;20374;-71
2022/11/25 09:01:54;;;;;;;5.00;2.78;;;19.90;99.90;;;;;;4966560;28;20576;-71
2022/11/25 09:04:22;;;;;;;4.65;2.35;;;19.90;99.90;;;;;;4970219;28;20054;-71
2022/11/25 09:06:49;;;;;;;4.80;2.60;;;20.20;99.90;;;;;;4970037;28;20145;-71
2022/11/25 09:09:17;;;;;;;4.55;2.33;;;20.40;99.90;;;;;;4970225;28;20059;-71
2022/11/25 09:11:44;;;;;;;6.68;2.95;;;20.50;99.90;;;;;;4970336;28;20054;-71
2022/11/25 09:14:13;;;;;;;4.18;2.40;;;20.60;99.90;;;;;;4970081;28;20192;-71
2022/11/25 09:16:40;;;;;;;4.65;2.33;;;20.70;99.90;;;;;;4969564;28;20547;-71
2022/11/25 09:19:08;;;;;;;3.60;2.20;;;20.70;99.90;;;;;;4970104;28;20545;-71
2022/11/25 09:21:36;;;;;;;6.13;2.53;;;20.70;99.90;;;;;;4969814;28;20357;-71
2022/11/25 09:24:03;;;;;;;3.85;2.58;;;20.70;99.90;;;;;;4970879;28;20044;-71
2022/11/25 09:26:34;;;;;;;4.65;2.25;;;20.80;99.90;;;;;;4970898;28;20482;-75
2022/11/25 09:29:02;;;;;;;6.13;2.15;;;20.90;99.90;;;;;;4969743;28;20047;-75
2022/11/25 09:31:30;;;;;;;2.80;1.75;;;21.20;99.90;;;;;;4956129;28;20346;-75
2022/11/25 09:33:58;;;;;;;2.72;1.45;;;21.30;99.00;;;;;;4962339;28;20615;-75
2022/11/25 09:36:25;;;;;;;4.97;1.95;;;21.50;98.70;;;;;;4970193;28;20074;-74
2022/11/25 09:38:53;;;;;;;3.15;1.30;;;21.60;98.30;;;;;;4953622;28;20054;-75
2022/11/25 09:47:30;;;;;;;2.47;1.30;;;22.30;96.30;;;;;;4969630;28;20046;-75
2022/11/25 09:50:24;;;;;;;4.20;1.77;;;22.40;96.70;;;;;;4953329;28;20137;-75
2022/11/25 09:52:57;;;;;;;1.95;1.65;;;22.50;96.60;;;;;;4947803;28;20054;-75
2022/11/25 09:55:29;;;;;;;6.05;2.03;;;22.60;96.60;;;;;;4970300;28;20051;-75
2022/11/25 09:58:21;;;;;;;10.05;1.90;;;22.80;96.70;;;;;;4950100;28;20066;-75
2022/11/25 10:00:51;;;;;;;2.28;1.63;;;23.00;96.70;;;;;;4956846;28;20050;-74
2022/11/25 10:03:28;;;;;;;3.17;1.20;;;22.50;95.30;;;;;;4936821;28;20550;-74
2022/11/25 10:06:17;;;;;;;2.50;1.15;;;22.10;93.30;;;;;;4941393;28;20478;-74
2022/11/25 10:08:48;;;;;;;2.58;1.33;;;21.40;93.20;;;;;;4968254;28;20735;-74
2022/11/25 10:11:22;;;;;;;1.65;1.08;;;20.80;93.50;;;;;;4952494;28;20093;-74
2022/11/25 10:14:17;;;;;;;1.83;1.13;;;20.60;93.60;;;;;;4968100;28;20161;-74
2022/11/25 10:17:18;;;;;;;1.33;0.90;;;20.60;92.80;;;;;;4943254;28;20145;-75
2022/11/25 10:20:20;;;;;;;1.02;0.68;;;20.70;92.40;;;;;;4962096;28;20053;-74
2022/11/25 10:22:54;;;;;;;0.90;0.70;;;21.00;92.50;;;;;;4967679;28;20061;-74
2022/11/25 10:25:26;;;;;;;0.90;0.80;;;21.20;92.10;;;;;;4953217;28;20039;-75
2022/11/25 10:28:03;;;;;;;1.13;0.88;;;21.20;91.60;;;;;;4968792;28;20035;-74
2022/11/25 10:30:38;;;;;;;0.93;0.70;;;21.30;91.30;;;;;;4952386;28;20042;-74
2022/11/25 10:33:25;;;;;;;1.75;0.80;;;21.40;90.90;;;;;;4956259;28;20517;-74
2022/11/25 10:36:33;;;;;;;0.60;0.60;;;21.30;90.90;;;;;;4962247;28;20077;-75
2022/11/25 10:39:03;;;;;;;2.67;1.15;;;21.30;90.30;;;;;;4951110;28;20152;-75
2022/11/25 10:41:37;;;;;;;0.50;0.50;;;21.30;91.20;;;;;;4977676;28;20043;-74
2022/11/25 10:44:17;;;;;;;0.70;0.55;;;21.40;90.90;;;;;;4968790;28;20117;-75
2022/11/25 10:47:07;;;;;;;2.00;0.75;;;21.40;90.40;;;;;;4940320;29;20106;-75
2022/11/25 10:49:45;;;;;;;0.65;0.60;;;21.40;89.90;;;;;;4965786;28;20386;-75
2022/11/25 10:52:14;;;;;;;1.85;1.20;;;21.40;90.20;;;;;;4939895;28;20074;-75
2022/11/25 10:54:54;;;;;;;2.25;0.85;;;21.40;90.80;;;;;;4952269;28;20046;-75
2022/11/25 10:57:27;;;;;;;1.67;0.73;;;21.50;91.20;;;;;;4955764;28;20519;-75
2022/11/25 11:00:00;;;;;;;1.65;1.10;;;21.60;91.40;;;;;;4968082;28;20054;-75
2022/11/25 11:02:38;;;;;;;0.90;0.80;;;21.50;90.20;;;;;;4951660;28;20417;-75
2022/11/25 11:05:09;;;;;;;2.75;1.00;;;21.50;86.50;;;;;;4952482;28;20051;-75
2022/11/25 11:07:42;;;;;;;3.38;1.67;;;21.50;87.90;;;;;;4967859;28;20101;-74
2022/11/25 11:10:13;;;;;;;1.63;1.00;;;21.50;88.80;;;;;;4951461;28;20054;-74
2022/11/25 11:13:03;;;;;;;1.98;1.10;;;21.60;89.90;;;;;;4967918;28;20137;-74
2022/11/25 11:15:40;;;;;;;2.28;0.80;;;21.40;88.80;;;;;;4956566;28;20047;-74
2022/11/25 11:18:25;;;;;;;0.82;0.65;;;21.10;88.20;;;;;;4969129;28;20073;-74
2022/11/25 11:20:58;;;;;;;0.57;0.50;;;20.70;89.80;;;;;;4967743;28;20071;-74
2022/11/25 11:23:27;;;;;;;0.88;0.77;;;20.70;90.50;;;;;;4968252;28;20042;-74
2022/11/25 11:25:57;;;;;;;2.03;0.98;;;20.70;90.50;;;;;;4954609;28;20129;-74
2022/11/25 11:28:35;;;;;;;0.82;0.70;;;20.50;90.70;;;;;;4952382;28;20059;-74
2022/11/25 11:31:25;;;;;;;1.95;1.35;;;20.40;90.90;;;;;;4968022;28;20093;-75
2022/11/25 11:34:23;;;;;;;0.88;0.70;;;20.40;91.00;;;;;;4967456;28;20039;-74
2022/11/25 11:37:20;;;;;;;2.92;1.27;;;20.20;90.30;;;;;;4939280;28;20055;-74
2022/11/25 11:40:13;;;;;;;;;;;20.30;90.60;;;;;;4944768;28;20055;-74
2022/11/25 11:42:59;;;;;;;2.25;0.98;;;20.40;90.70;;;;;;4953184;28;19945;-75
2022/11/25 11:45:39;;;;;;;1.98;1.10;;;20.70;91.10;;;;;;4971924;28;20476;-73
2022/11/25 11:48:28;;;;;;;23.67;3.83;;;20.90;90.70;;;;;;4972658;28;20057;-75
2022/11/25 11:51:19;;;;;;;12.40;2.10;;;20.80;90.40;;;;;;4954884;28;20050;-74
2022/11/25 11:53:56;;;;;;;2.90;1.00;;;20.90;90.70;;;;;;4955489;28;20038;-74
2022/11/25 11:56:45;;;;;;;2.75;1.10;;;21.00;90.90;;;;;;4972932;28;20704;-73
2022/11/25 11:59:39;;;;;;;2.40;1.00;;;20.90;90.60;;;;;;4971541;28;20094;-74
2022/11/25 12:02:23;;;;;;;2.30;0.82;;;20.80;90.30;;;;;;4955406;28;20051;-75
2022/11/25 12:05:08;;;;;;;0.88;0.68;;;20.40;90.70;;;;;;4970357;28;20047;-74
2022/11/25 12:07:58;;;;;;;1.23;0.80;;;20.30;90.90;;;;;;4965114;28;20051;-73
2022/11/25 12:10:28;;;;;;;1.40;0.73;;;20.20;91.00;;;;;;4967706;28;20395;-74
2022/11/25 12:13:21;;;;;;;0.88;0.70;;;20.30;91.00;;;;;;4970664;28;20070;-74
2022/11/25 12:15:48;;;;;;;0.93;0.70;;;20.40;90.90;;;;;;4970939;28;20054;-74
2022/11/25 12:18:22;;;;;;;1.23;0.60;;;20.30;90.60;;;;;;4951541;29;20154;-73
2022/11/25 12:21:02;;;;;;;1.30;0.90;;;20.30;90.50;;;;;;4967148;28;20058;-74
2022/11/25 12:23:53;;;;;;;1.30;0.80;;;20.20;90.00;;;;;;4970627;28;20050;-74
2022/11/25 12:26:35;;;;;;;2.55;1.65;;;20.10;89.90;;;;;;4970507;28;20047;-74
2022/11/25 12:29:12;;;;;;;4.10;1.10;;;19.90;90.50;;;;;;4970437;28;20122;-74
2022/11/25 12:31:52;;;;;;;0.85;0.73;;;19.90;90.70;;;;;;4938982;28;20145;-74
2022/11/25 12:34:32;;;;;;;2.58;1.13;;;19.90;91.10;;;;;;4954279;28;20105;-74
2022/11/25 12:37:11;;;;;;;4.28;1.20;;;19.80;91.40;;;;;;4954542;28;20083;-73
2022/11/25 12:39:56;;;;;;;1.70;1.23;;;19.90;91.40;;;;;;4954544;28;20450;-73
2022/11/25 12:42:25;;;;;;;2.28;1.02;;;19.90;91.50;;;;;;4967981;28;20047;-72
2022/11/25 12:45:04;;;;;;;2.47;1.25;;;20.00;91.30;;;;;;4952989;28;20161;-74
2022/11/25 12:47:32;;;;;;;2.25;1.27;;;20.10;91.30;;;;;;4971121;28;20043;-74
2022/11/25 12:50:00;;;;;;;0.98;0.70;;;20.10;91.30;;;;;;4956600;28;20061;-73
2022/11/25 12:52:52;;;;;;;4.85;1.13;;;20.10;90.50;;;;;;4971034;28;20124;-73
2022/11/25 12:55:21;;;;;;;2.72;0.82;;;19.90;91.00;;;;;;4956509;28;20039;-74
2022/11/25 12:57:59;;;;;;;1.70;0.90;;;19.80;90.70;;;;;;4969914;28;20143;-74
2022/11/25 13:00:46;;;;;;;1.65;0.80;;;19.80;90.20;;;;;;4969874;28;20058;-74
2022/11/25 13:03:58;;;;;;;11.57;2.50;;;19.80;90.30;;;;;;4962643;28;20149;-73
2022/11/25 13:06:47;;;;;;;0.73;0.60;;;19.60;90.40;;;;;;4910121;29;20195;-74
2022/11/25 13:09:35;;;;;;;1.33;0.70;;;19.20;91.10;;;;;;4885372;29;20063;-74
2022/11/25 13:12:31;;;;;;;1.40;0.70;;;19.20;91.80;;;;;;4927785;28;20606;-74
2022/11/25 13:15:01;;;;;;;1.08;0.75;;;18.80;91.40;;;;;;4970705;28;20050;-73
2022/11/25 13:17:35;;;;;;;1.85;0.75;;;18.80;91.60;;;;;;4937481;28;20161;-78
2022/11/25 13:20:22;;;;;;;1.95;0.80;;;18.60;91.60;;;;;;4953637;28;20149;-74
2022/11/25 13:23:12;;;;;;;1.98;0.90;;;18.50;91.70;;;;;;4953688;28;20508;-74
2022/11/25 13:25:43;;;;;;;1.27;0.80;;;18.40;91.70;;;;;;4969584;28;20074;-75
2022/11/25 13:28:47;;;;;;;1.15;0.80;;;18.50;91.70;;;;;;4953515;28;20050;-74
2022/11/25 13:31:32;;;;;;;1.80;0.70;;;18.50;92.00;;;;;;4948276;28;20117;-75
2022/11/25 13:34:20;;;;;;;0.77;0.68;;;18.50;92.40;;;;;;4969051;28;20457;-74
2022/11/25 13:36:54;;;;;;;0.95;0.70;;;18.50;92.40;;;;;;4953330;28;20080;-77